createdAt,value
2023-04-14T00:04:46.881Z,11.4
2023-04-14T00:09:46.641Z,7.3
2023-04-14T00:14:46.579Z,6.4
2023-04-14T00:19:46.530Z,5.1
2023-04-14T00:24:46.468Z,6.2
2023-04-14T00:29:46.421Z,5.9
2023-04-14T00:34:46.336Z,4.4
2023-04-14T00:39:46.268Z,5.4
2023-04-14T00:44:46.270Z,3.9
2023-04-14T00:49:46.167Z,5.0
2023-04-14T00:54:46.128Z,6.9
2023-04-14T00:59:46.195Z,6.0
2023-04-14T01:04:53.830Z,5.7
2023-04-14T01:09:47.106Z,5.5
2023-04-14T01:14:45.881Z,4.8
2023-04-14T01:19:45.844Z,5.3
2023-04-14T01:24:45.827Z,6.0
2023-04-14T01:29:45.750Z,6.9
2023-04-14T01:34:45.705Z,3.9
2023-04-14T01:39:45.619Z,4.7
2023-04-14T01:44:45.562Z,4.5
2023-04-14T01:49:45.628Z,4.8
2023-04-14T01:54:45.523Z,4.3
2023-04-14T01:59:45.397Z,4.7
2023-04-14T02:04:45.359Z,4.2
2023-04-14T02:09:45.291Z,3.4
2023-04-14T02:14:45.218Z,4.1
2023-04-14T02:19:45.144Z,3.9
2023-04-14T02:24:45.168Z,4.2
2023-04-14T02:29:45.072Z,4.0
2023-04-14T02:34:45.007Z,4.0
2023-04-14T02:39:44.996Z,3.7
2023-04-14T02:44:44.928Z,4.8
2023-04-14T02:49:44.864Z,4.0
2023-04-14T02:54:44.911Z,3.7
2023-04-14T02:59:45.895Z,4.8
2023-04-14T03:04:44.845Z,4.1
2023-04-14T03:09:44.667Z,4.6
2023-04-14T03:14:44.655Z,4.3
2023-04-14T03:19:44.550Z,5.2
2023-04-14T03:24:44.571Z,4.6
2023-04-14T03:29:44.495Z,4.4
2023-04-14T03:34:44.383Z,5.2
2023-04-14T03:39:44.347Z,4.1
2023-04-14T03:44:44.303Z,4.5
2023-04-14T03:49:44.223Z,4.7
2023-04-14T03:54:44.204Z,3.8
2023-04-14T03:59:44.129Z,5.0
2023-04-14T04:04:44.185Z,5.3
2023-04-14T04:09:44.000Z,5.2
2023-04-14T04:14:43.978Z,4.7
2023-04-14T04:19:43.928Z,4.2
2023-04-14T04:24:43.889Z,4.2
2023-04-14T04:29:43.919Z,4.7
2023-04-14T04:34:43.774Z,5.5
2023-04-14T04:39:43.768Z,5.3
2023-04-14T04:44:43.681Z,5.3
2023-04-14T04:49:43.601Z,5.3
2023-04-14T04:54:43.564Z,5.9
2023-04-14T04:59:43.526Z,6.0
2023-04-14T05:06:22.016Z,5.6
2023-04-14T05:11:21.996Z,5.6
2023-04-14T05:17:50.931Z,6.7
2023-04-14T05:22:53.961Z,6.8
2023-04-14T05:27:48.591Z,6.0
2023-04-14T05:53:07.698Z,6.2
2023-04-14T05:58:07.549Z,6.3
2023-04-14T06:09:50.531Z,5.4
2023-04-14T06:14:51.807Z,5.7
2023-04-14T06:19:50.452Z,5.1
2023-04-14T06:24:51.818Z,6.0
2023-04-14T06:29:50.225Z,4.1
2023-04-14T06:34:51.330Z,4.3
2023-04-14T06:39:49.939Z,5.4
2023-04-14T06:44:49.934Z,4.6
2023-04-14T06:49:49.914Z,4.6
2023-04-14T06:54:49.828Z,4.8
2023-04-14T06:59:49.812Z,4.6
2023-04-14T07:04:49.735Z,4.4
2023-04-14T07:09:49.697Z,3.4
2023-04-14T07:14:49.616Z,3.4
2023-04-14T07:19:49.517Z,4.2
2023-04-14T07:24:49.567Z,3.2
2023-04-14T07:29:49.427Z,3.1
2023-04-14T07:34:49.366Z,3.6
2023-04-14T07:39:49.357Z,3.3
2023-04-14T07:44:49.256Z,3.4
2023-04-14T07:49:49.302Z,3.5
2023-04-14T07:54:49.216Z,3.7
2023-04-14T07:59:49.083Z,3.3
2023-04-14T08:04:49.054Z,3.6
2023-04-14T08:09:48.975Z,3.6
2023-04-14T08:14:48.969Z,3.2
2023-04-14T08:19:48.921Z,2.9
2023-04-14T08:24:48.878Z,2.7
2023-04-14T08:29:48.772Z,3.6
2023-04-14T08:35:34.905Z,2.8
2023-04-14T08:39:49.693Z,3.7
2023-04-14T08:44:48.619Z,2.5
2023-04-14T08:49:48.545Z,2.4
2023-04-14T08:54:48.502Z,3.0
2023-04-14T08:59:48.519Z,2.8
2023-04-14T09:04:48.468Z,3.3
2023-04-14T09:09:48.380Z,2.8
2023-04-14T09:14:48.338Z,2.8
2023-04-14T09:20:35.924Z,2.5
2023-04-14T09:24:49.156Z,2.2
2023-04-14T09:29:48.109Z,2.8
2023-04-14T09:34:48.035Z,2.3
2023-04-14T09:39:48.043Z,3.0
2023-04-14T09:44:47.994Z,2.4
2023-04-14T09:49:47.982Z,2.6
2023-04-14T09:54:47.896Z,2.5
2023-04-14T09:59:47.786Z,3.0
2023-04-14T10:04:47.847Z,2.8
2023-04-14T10:09:47.720Z,2.1
2023-04-14T10:14:47.643Z,2.4
2023-04-14T10:19:47.663Z,2.5
2023-04-14T10:24:47.593Z,1.9
2023-04-14T10:29:47.481Z,2.2
2023-04-14T10:34:47.391Z,2.1
2023-04-14T10:39:47.444Z,1.8
2023-04-14T10:44:47.328Z,1.8
2023-04-14T10:49:47.288Z,1.7
2023-04-14T10:54:47.218Z,1.9
2023-04-14T10:59:47.157Z,2.2
2023-04-14T11:04:47.130Z,2.1
2023-04-14T11:09:47.067Z,2.2
2023-04-14T11:14:47.046Z,2.0
2023-04-14T11:19:46.993Z,2.1
2023-04-14T11:24:46.881Z,2.2
2023-04-14T11:29:46.839Z,1.9
2023-04-14T11:34:46.828Z,1.9
2023-04-14T11:39:46.772Z,2.1
2023-04-14T11:44:46.723Z,2.0
2023-04-14T11:49:46.623Z,2.5
2023-04-14T11:54:46.632Z,2.1
2023-04-14T11:59:46.508Z,1.9
2023-04-14T12:04:46.703Z,1.8
2023-04-14T12:09:46.412Z,2.1
2023-04-14T12:14:46.348Z,1.8
2023-04-14T12:19:46.366Z,1.6
2023-04-14T12:24:46.270Z,1.1
2023-04-14T12:29:46.226Z,1.5
2023-04-14T12:34:46.178Z,1.6
2023-04-14T12:39:46.144Z,1.5
2023-04-14T12:44:46.089Z,1.6
2023-04-14T12:49:45.971Z,1.5
2023-04-14T12:54:45.962Z,1.4
2023-04-14T12:59:46.037Z,1.6
2023-04-14T13:04:45.801Z,2.0
2023-04-14T13:09:45.798Z,1.8
2023-04-14T13:14:45.752Z,1.5
2023-04-14T13:19:45.718Z,1.6
2023-04-14T13:24:45.617Z,1.3
2023-04-14T13:29:45.588Z,1.2
2023-04-14T13:34:45.504Z,1.5
2023-04-14T13:39:54.277Z,1.5
2023-04-14T13:44:45.401Z,1.6
2023-04-14T13:49:45.322Z,1.3
2023-04-14T13:54:45.293Z,1.5
2023-04-14T13:59:45.336Z,1.2
2023-04-14T14:04:45.444Z,1.1
2023-04-14T14:09:45.171Z,1.2
2023-04-14T14:14:45.061Z,1.9
2023-04-14T14:19:45.026Z,1.3
2023-04-14T14:24:44.949Z,1.4
2023-04-14T14:29:44.925Z,1.5
2023-04-14T14:34:44.824Z,1.4
2023-04-14T14:39:44.801Z,1.3
2023-04-14T14:44:44.749Z,1.8
2023-04-14T14:49:52.962Z,1.2
2023-04-14T14:54:45.576Z,1.7
2023-04-14T14:59:44.489Z,1.6
2023-04-14T15:04:44.588Z,1.2
2023-04-14T15:09:44.452Z,1.2
2023-04-14T15:14:44.477Z,1.2
2023-04-14T15:19:44.408Z,1.6
2023-04-14T15:24:44.369Z,1.0
2023-04-14T15:29:45.507Z,1.4
2023-04-14T15:34:44.267Z,1.2
2023-04-14T15:39:44.255Z,1.7
2023-04-14T15:44:44.140Z,1.6
2023-04-14T15:49:44.582Z,1.4
2023-04-14T15:54:45.098Z,1.8
2023-04-14T15:59:44.011Z,1.2
2023-04-14T16:04:44.032Z,1.8
2023-04-14T16:09:43.902Z,1.5
2023-04-14T16:14:43.873Z,1.4
2023-04-14T16:19:43.815Z,1.9
2023-04-14T16:24:44.129Z,2.7
2023-04-14T16:29:43.673Z,3.9
2023-04-14T16:34:43.650Z,2.7
2023-04-14T16:39:43.609Z,2.1
2023-04-14T16:44:43.528Z,3.3
2023-04-14T16:49:43.484Z,2.3
2023-04-14T16:54:43.428Z,2.8
2023-04-14T16:59:43.406Z,2.4
2023-04-14T17:04:43.374Z,1.9
2023-04-14T17:09:43.191Z,2.7
2023-04-14T17:14:43.143Z,1.8
2023-04-14T17:19:43.121Z,1.8
2023-04-14T17:24:43.063Z,2.7
2023-04-14T17:29:43.063Z,2.6
2023-04-14T17:34:42.918Z,2.4
2023-04-14T17:39:42.961Z,2.6
2023-04-14T17:44:42.943Z,4.2
2023-04-14T17:49:42.960Z,4.2
2023-04-14T17:54:42.688Z,3.7
2023-04-14T17:59:42.661Z,4.9
2023-04-14T18:04:42.599Z,3.2
2023-04-14T18:09:42.672Z,3.2
2023-04-14T18:14:42.510Z,2.6
2023-04-14T18:19:42.563Z,2.8
2023-04-14T18:29:42.430Z,3.3
2023-04-14T18:34:42.660Z,2.7
2023-04-14T18:39:42.394Z,3.2
2023-04-14T18:44:42.260Z,10.2
2023-04-14T18:49:42.151Z,3.6
2023-04-14T18:54:43.094Z,5.1
2023-04-14T18:59:45.823Z,2.6
2023-04-14T19:04:46.527Z,2.1
2023-04-14T19:09:45.586Z,2.5
2023-04-14T19:14:43.849Z,3.4
2023-04-14T19:19:42.305Z,2.4
2023-04-14T19:24:41.750Z,2.7
2023-04-14T19:29:42.312Z,3.3
2023-04-14T19:34:42.844Z,4.4
2023-04-14T19:39:42.126Z,3.7
2023-04-14T19:44:41.853Z,3.3
2023-04-14T19:49:43.116Z,3.4
2023-04-14T19:54:41.515Z,3.9
2023-04-14T19:59:41.626Z,3.7
2023-04-14T20:04:42.441Z,3.9
2023-04-14T20:09:41.409Z,2.9
2023-04-14T20:14:41.413Z,3.3
2023-04-14T20:19:41.469Z,4.0
2023-04-14T20:24:42.040Z,4.7
2023-04-14T20:29:41.077Z,3.8
2023-04-14T20:34:41.283Z,3.5
2023-04-14T20:39:41.002Z,4.0
2023-04-14T20:44:41.207Z,4.1
2023-04-14T20:49:41.234Z,3.9
2023-04-14T20:54:41.078Z,3.7
2023-04-14T20:59:40.965Z,4.1
2023-04-14T21:04:40.888Z,4.0
2023-04-14T21:09:43.748Z,4.2
2023-04-14T21:15:30.933Z,4.6
2023-04-14T21:19:41.637Z,4.8
2023-04-14T21:24:41.497Z,4.5
2023-04-14T21:29:45.257Z,4.5
2023-04-14T21:34:40.550Z,4.8
2023-04-14T21:39:41.241Z,5.3
2023-04-14T21:44:49.038Z,5.5
2023-04-14T21:49:40.220Z,5.0
2023-04-14T21:54:40.142Z,5.3
2023-04-14T21:59:40.119Z,5.6
2023-04-14T22:04:40.125Z,5.0
2023-04-14T22:09:39.878Z,5.6
2023-04-14T22:14:39.843Z,5.4
2023-04-14T22:19:39.766Z,5.9
2023-04-14T22:24:39.761Z,6.1
2023-04-14T22:29:39.659Z,5.3
2023-04-14T22:34:39.634Z,5.3
2023-04-14T22:39:39.598Z,6.0
2023-04-14T22:44:39.584Z,6.2
2023-04-14T22:49:39.475Z,5.8
2023-04-14T22:54:39.480Z,6.5
2023-04-14T22:59:39.388Z,5.9
2023-04-14T23:04:39.439Z,6.3
2023-04-14T23:09:39.373Z,6.7
2023-04-14T23:14:39.206Z,5.8
2023-04-14T23:19:39.155Z,7.1
2023-04-14T23:24:39.177Z,6.6
2023-04-14T23:29:39.053Z,6.2
2023-04-14T23:34:38.960Z,6.9
2023-04-14T23:39:38.963Z,7.0
2023-04-14T23:44:38.856Z,6.8
2023-04-14T23:49:38.867Z,7.3
2023-04-14T23:54:38.739Z,6.9
2023-04-14T23:59:38.756Z,7.0
